South Seaside Park, New Jersey
Current Conditions -  °F | °C
As of 11:15 PM on Sunday 23 Nov 2014 (Local Time) from KMJX Reporting Station
Overcast Overcast  
Wind Chill: 55°   Ceiling: 3400
Heat Index: 55°   Visibility: 10mi
Dew Point: 50°   Wind: 5mph
Humidity: 82%   Direction: 140°SE
Pressure: 30"   Gusts: NA
Location:  39.8448°N, 74.0905°W
Report Text: KMJX 240415Z AUTO 14004KT 10SM SCT026 OVC034 13/10 A3000 RMK AO1
Loading
Personal Weather Stations






























Interactive Weather Map New forecast layout! Learn more

10-Day Weather Forecast

Advertisements
Track Severe Weather on mobile